Share

Warren, MN

4:26 AM CDT on April 24, 2014 (GMT -0500)
Grand Forks International (KGFK) Elev 843 ft | 47.95 °N, 97.18 °W | Change Station
Active Advisory: Flood Warning Active Notice: Record Report

Current weather conditions updated 33 minutes ago

Overcast
Overcast
39 °F
Feels Like 31 °F
N
13
Wind Variable Wind from SE
Sunrise 6:20 AM
Sunset 8:30 PM
Moon Waning Crescent

Today is forecast to be nearly the same temperature as yesterday. Rain.

Pressure 29.81 in
Visibility 9.0 miles
Clouds Overcast 600 ft
Windchill 31 °F
Dew Point 37 °F
Humidity 93%
Rainfall 0.06 in
Snow Depth Not available.
UV 0 out of 16
Pollen 7.80 out of 12
Air Quality Not available.
Flu Activity Sporadic
METAR KGFK 240853Z AUTO 13011KT 9SM OVC006 04/03 A2979 RMK AO2 RAB04E33 SLP095 P0002 60004 T00390028 58012 TSNO

More Conditions Fewer Conditions

Pressure 29.81 in
Visibility 9.0 miles
Clouds Overcast 600 ft
Windchill 31 °F
Dew Point 37 °F
Humidity 93%
Rainfall 0.06 in
Snow Depth Not available.
UV 0 out of 16
Pollen 7.80 out of 12
Air Quality Not available.
Flu Activity Sporadic
METAR KGFK 240853Z AUTO 13011KT 9SM OVC006 04/03 A2979 RMK AO2 RAB04E33 SLP095 P0002 60004 T00390028 58012 TSNO

More Conditions Fewer Conditions

10-Day Weather Forecast

Almanac

Astronomy

Apr. 24, 2014 Rise Set
Actual Time 6:20 AM CDT 8:30 PM CDT
Civil Twilight 5:46 AM CDT 9:04 PM CDT
Nautical Twilight 5:04 AM CDT 9:47 PM CDT
Astronomical Twilight 4:17 AM CDT 10:35 PM CDT
Moon 3:56 AM CDT 3:26 PM CDT
Length of Visible Light 15h 18m
Length of Day
14h 10m
Tomorrow will be 3m 14s longer.
Waning Crescent, 27% of the Moon is Illuminated
Today
Waning Crescent
Apr 29
New
May 6
First Quarter
May 14
Full
May 21
Last Quarter

Today's Extremes

State Highs State Lows

Community

  • Stacked
    Stacked
  • clouds approaching Red Sox Nation
    clouds approaching Red Sox Nation
  • Balance
    Balance
  • Nestled In
    Nestled In
  • Stunning Sunrise
    Stunning Sunrise

WunderPhotos

Upload Photos

1,704,575 photos uploaded!

WunderBlogs® & News

Nearby

Snow Depth

Station Depth Elevation
No new snow has been reported.

Coastal Water Temperatures

Place Temperature
No Stations Reporting

Earthquake Activity

City Distance Mag. Time & Date
No recent earthquake activity has been reported nearby.
Minimum magnitude displayed is 2.5.

Nearby Weather Stations

There are no personal weather stations in this area.

What do you think?

We're not finished. Please let us know what you like, what you don't like, and what you are still missing.